sensor_id;sensor_type;location;lat;lon;timestamp;pressure;altitude;pressure_sealevel;temperature;humidity
26531;BME280;14201;43.188;24.160;2023-04-21T00:02:19;99153.47;;;10.11;91.71
26531;BME280;14201;43.188;24.160;2023-04-21T00:04:44;99161.28;;;10.35;91.85
26531;BME280;14201;43.188;24.160;2023-04-21T00:07:10;99154.94;;;10.52;90.10
26531;BME280;14201;43.188;24.160;2023-04-21T00:09:39;99156.88;;;10.58;89.27
26531;BME280;14201;43.188;24.160;2023-04-21T00:12:05;99153.81;;;10.70;88.52
26531;BME280;14201;43.188;24.160;2023-04-21T00:14:30;99152.97;;;10.71;88.63
26531;BME280;14201;43.188;24.160;2023-04-21T00:16:56;99154.78;;;10.73;88.52
26531;BME280;14201;43.188;24.160;2023-04-21T00:19:23;99160.69;;;10.68;89.37
26531;BME280;14201;43.188;24.160;2023-04-21T00:21:49;99160.94;;;10.50;90.63
26531;BME280;14201;43.188;24.160;2023-04-21T00:24:14;99155.59;;;10.71;89.01
26531;BME280;14201;43.188;24.160;2023-04-21T00:26:40;99156.31;;;10.67;89.05
26531;BME280;14201;43.188;24.160;2023-04-21T00:29:06;99163.59;;;10.77;88.94
26531;BME280;14201;43.188;24.160;2023-04-21T00:31:31;99158.28;;;10.74;88.48
26531;BME280;14201;43.188;24.160;2023-04-21T00:33:57;99156.53;;;10.73;88.63
26531;BME280;14201;43.188;24.160;2023-04-21T00:36:22;99165.06;;;10.69;89.22
26531;BME280;14201;43.188;24.160;2023-04-21T00:38:49;99162.88;;;10.81;88.52
26531;BME280;14201;43.188;24.160;2023-04-21T00:41:15;99168.41;;;10.90;87.87
26531;BME280;14201;43.188;24.160;2023-04-21T00:44:03;99167.28;;;10.83;87.71
26531;BME280;14201;43.188;24.160;2023-04-21T00:46:29;99160.22;;;10.79;88.09
26531;BME280;14201;43.188;24.160;2023-04-21T00:48:54;99155.06;;;10.81;88.10
26531;BME280;14201;43.188;24.160;2023-04-21T00:51:20;99154.84;;;10.75;87.95
26531;BME280;14201;43.188;24.160;2023-04-21T00:53:46;99145.22;;;10.72;87.58
26531;BME280;14201;43.188;24.160;2023-04-21T00:56:12;99155.16;;;10.84;87.41
26531;BME280;14201;43.188;24.160;2023-04-21T00:58:41;99161.41;;;10.89;86.52
26531;BME280;14201;43.188;24.160;2023-04-21T01:01:06;99162.75;;;11.03;85.06
26531;BME280;14201;43.188;24.160;2023-04-21T01:03:32;99156.50;;;10.98;85.51
26531;BME280;14201;43.188;24.160;2023-04-21T01:05:58;99153.44;;;11.12;85.21
26531;BME280;14201;43.188;24.160;2023-04-21T01:08:25;99148.78;;;11.01;84.76
26531;BME280;14201;43.188;24.160;2023-04-21T01:10:51;99158.06;;;10.93;84.89
26531;BME280;14201;43.188;24.160;2023-04-21T01:13:19;99153.50;;;10.86;85.22
26531;BME280;14201;43.188;24.160;2023-04-21T01:15:47;99156.03;;;10.84;84.77
26531;BME280;14201;43.188;24.160;2023-04-21T01:18:12;99155.94;;;10.81;84.97
26531;BME280;14201;43.188;24.160;2023-04-21T01:20:39;99155.78;;;10.77;85.55
26531;BME280;14201;43.188;24.160;2023-04-21T01:23:05;99155.06;;;10.81;84.94
26531;BME280;14201;43.188;24.160;2023-04-21T01:25:31;99154.84;;;10.49;86.12
26531;BME280;14201;43.188;24.160;2023-04-21T01:27:57;99153.06;;;10.48;86.04
26531;BME280;14201;43.188;24.160;2023-04-21T01:30:23;99158.19;;;10.45;85.98
26531;BME280;14201;43.188;24.160;2023-04-21T01:32:48;99154.78;;;10.23;87.88
26531;BME280;14201;43.188;24.160;2023-04-21T01:35:14;99162.31;;;9.92;90.06
26531;BME280;14201;43.188;24.160;2023-04-21T01:37:40;99165.50;;;9.84;91.79
26531;BME280;14201;43.188;24.160;2023-04-21T01:40:07;99166.34;;;9.61;94.05
26531;BME280;14201;43.188;24.160;2023-04-21T01:42:35;99160.50;;;9.44;94.98
26531;BME280;14201;43.188;24.160;2023-04-21T01:45:02;99157.59;;;9.36;95.80
26531;BME280;14201;43.188;24.160;2023-04-21T01:47:28;99162.16;;;9.42;95.48
26531;BME280;14201;43.188;24.160;2023-04-21T01:49:54;99155.38;;;9.45;94.67
26531;BME280;14201;43.188;24.160;2023-04-21T01:52:20;99167.41;;;9.43;94.22
26531;BME280;14201;43.188;24.160;2023-04-21T01:54:45;99168.66;;;9.53;93.77
26531;BME280;14201;43.188;24.160;2023-04-21T01:57:11;99159.38;;;9.37;94.01
26531;BME280;14201;43.188;24.160;2023-04-21T01:59:37;99156.03;;;9.19;94.63
26531;BME280;14201;43.188;24.160;2023-04-21T02:02:03;99168.94;;;8.95;96.04
26531;BME280;14201;43.188;24.160;2023-04-21T02:04:29;99161.22;;;8.75;97.47
26531;BME280;14201;43.188;24.160;2023-04-21T02:06:54;99156.47;;;8.65;98.72
26531;BME280;14201;43.188;24.160;2023-04-21T02:09:20;99160.19;;;8.72;99.65
26531;BME280;14201;43.188;24.160;2023-04-21T02:11:45;99158.47;;;8.72;98.96
26531;BME280;14201;43.188;24.160;2023-04-21T02:14:11;99163.81;;;8.75;97.71
26531;BME280;14201;43.188;24.160;2023-04-21T02:16:36;99144.06;;;8.79;96.91
26531;BME280;14201;43.188;24.160;2023-04-21T02:19:02;99162.63;;;8.88;96.78
26531;BME280;14201;43.188;24.160;2023-04-21T02:21:28;99157.59;;;8.93;96.01
26531;BME280;14201;43.188;24.160;2023-04-21T02:23:53;99162.16;;;8.98;96.28
26531;BME280;14201;43.188;24.160;2023-04-21T02:26:19;99156.59;;;8.89;96.62
26531;BME280;14201;43.188;24.160;2023-04-21T02:28:46;99152.63;;;8.76;97.88
26531;BME280;14201;43.188;24.160;2023-04-21T02:31:12;99157.28;;;8.85;98.22
26531;BME280;14201;43.188;24.160;2023-04-21T02:33:38;99159.72;;;8.80;98.97
26531;BME280;14201;43.188;24.160;2023-04-21T02:36:03;99149.00;;;8.73;99.93
26531;BME280;14201;43.188;24.160;2023-04-21T02:38:29;99144.06;;;8.79;100.00
26531;BME280;14201;43.188;24.160;2023-04-21T02:40:56;99162.66;;;8.90;100.00
26531;BME280;14201;43.188;24.160;2023-04-21T02:43:21;99163.25;;;9.03;100.00
26531;BME280;14201;43.188;24.160;2023-04-21T02:45:47;99165.72;;;9.00;99.83
26531;BME280;14201;43.188;24.160;2023-04-21T02:48:13;99168.88;;;8.93;100.00
26531;BME280;14201;43.188;24.160;2023-04-21T02:50:38;99159.44;;;8.95;100.00
26531;BME280;14201;43.188;24.160;2023-04-21T02:53:04;99155.81;;;8.92;100.00
26531;BME280;14201;43.188;24.160;2023-04-21T02:55:30;99161.47;;;9.02;100.00
26531;BME280;14201;43.188;24.160;2023-04-21T02:57:56;99157.94;;;9.00;100.00
26531;BME280;14201;43.188;24.160;2023-04-21T03:00:21;99155.19;;;8.97;100.00
26531;BME280;14201;43.188;24.160;2023-04-21T03:02:47;99154.31;;;8.97;100.00
26531;BME280;14201;43.188;24.160;2023-04-21T03:05:12;99163.94;;;8.99;100.00
26531;BME280;14201;43.188;24.160;2023-04-21T03:07:38;99162.81;;;8.93;100.00
26531;BME280;14201;43.188;24.160;2023-04-21T03:10:05;99160.38;;;8.97;100.00
26531;BME280;14201;43.188;24.160;2023-04-21T03:12:31;99158.63;;;8.96;100.00
26531;BME280;14201;43.188;24.160;2023-04-21T03:14:57;99159.56;;;8.98;100.00
26531;BME280;14201;43.188;24.160;2023-04-21T03:17:23;99172.63;;;9.00;100.00
26531;BME280;14201;43.188;24.160;2023-04-21T03:19:49;99165.72;;;9.00;100.00
26531;BME280;14201;43.188;24.160;2023-04-21T03:22:14;99167.75;;;9.07;99.93
26531;BME280;14201;43.188;24.160;2023-04-21T03:24:40;99171.22;;;9.08;98.89
26531;BME280;14201;43.188;24.160;2023-04-21T03:27:05;99157.47;;;8.90;99.45
26531;BME280;14201;43.188;24.160;2023-04-21T03:29:31;99167.94;;;8.91;99.77
26531;BME280;14201;43.188;24.160;2023-04-21T03:31:57;99165.22;;;8.88;99.63
26531;BME280;14201;43.188;24.160;2023-04-21T03:34:22;99161.53;;;8.83;99.71
26531;BME280;14201;43.188;24.160;2023-04-21T03:36:48;99168.63;;;8.87;100.00
26531;BME280;14201;43.188;24.160;2023-04-21T03:39:13;99166.59;;;8.80;100.00
26531;BME280;14201;43.188;24.160;2023-04-21T03:41:39;99169.78;;;8.73;100.00
26531;BME280;14201;43.188;24.160;2023-04-21T03:44:05;99167.13;;;8.71;100.00
26531;BME280;14201;43.188;24.160;2023-04-21T03:46:30;99164.69;;;8.76;100.00
26531;BME280;14201;43.188;24.160;2023-04-21T03:48:56;99167.69;;;8.85;100.00
26531;BME280;14201;43.188;24.160;2023-04-21T03:51:21;99177.13;;;9.04;100.00
26531;BME280;14201;43.188;24.160;2023-04-21T03:53:47;99189.25;;;9.05;100.00
26531;BME280;14201;43.188;24.160;2023-04-21T03:56:13;99185.22;;;9.12;99.73
26531;BME280;14201;43.188;24.160;2023-04-21T03:58:38;99196.00;;;9.21;99.53
26531;BME280;14201;43.188;24.160;2023-04-21T04:01:05;99203.81;;;9.22;99.97
26531;BME280;14201;43.188;24.160;2023-04-21T04:03:31;99196.00;;;9.21;99.80
26531;BME280;14201;43.188;24.160;2023-04-21T04:05:56;99202.19;;;9.24;99.50
26531;BME280;14201;43.188;24.160;2023-04-21T04:08:22;99205.06;;;9.31;98.99
26531;BME280;14201;43.188;24.160;2023-04-21T04:10:48;99209.56;;;9.36;98.86
26531;BME280;14201;43.188;24.160;2023-04-21T04:13:13;99218.28;;;9.37;98.28
26531;BME280;14201;43.188;24.160;2023-04-21T04:15:39;99221.59;;;9.33;98.11
26531;BME280;14201;43.188;24.160;2023-04-21T04:18:05;99219.97;;;9.36;98.57
26531;BME280;14201;43.188;24.160;2023-04-21T04:20:30;99220.34;;;9.45;97.95
26531;BME280;14201;43.188;24.160;2023-04-21T04:22:56;99224.34;;;9.58;96.16
26531;BME280;14201;43.188;24.160;2023-04-21T04:25:21;99223.97;;;9.49;96.97
26531;BME280;14201;43.188;24.160;2023-04-21T04:27:47;99232.06;;;9.57;98.00
26531;BME280;14201;43.188;24.160;2023-04-21T04:30:14;99233.47;;;9.71;98.76
26531;BME280;14201;43.188;24.160;2023-04-21T04:32:41;99232.31;;;9.85;97.40
26531;BME280;14201;43.188;24.160;2023-04-21T04:35:08;99231.13;;;10.00;96.13
26531;BME280;14201;43.188;24.160;2023-04-21T04:37:37;99241.47;;;9.98;95.99
26531;BME280;14201;43.188;24.160;2023-04-21T04:40:04;99240.94;;;10.07;95.17
26531;BME280;14201;43.188;24.160;2023-04-21T04:42:31;99246.28;;;10.12;94.33
26531;BME280;14201;43.188;24.160;2023-04-21T04:44:57;99246.72;;;10.22;95.40
26531;BME280;14201;43.188;24.160;2023-04-21T04:47:24;99244.59;;;10.35;94.30
26531;BME280;14201;43.188;24.160;2023-04-21T04:49:49;99240.09;;;10.31;95.46
26531;BME280;14201;43.188;24.160;2023-04-21T04:52:15;99247.19;;;10.35;94.43
26531;BME280;14201;43.188;24.160;2023-04-21T04:54:41;99245.66;;;10.40;94.09
26531;BME280;14201;43.188;24.160;2023-04-21T04:57:06;99248.25;;;10.40;94.85
26531;BME280;14201;43.188;24.160;2023-04-21T04:59:32;99247.41;;;10.41;95.47
26531;BME280;14201;43.188;24.160;2023-04-21T05:01:58;99242.09;;;10.38;95.62
26531;BME280;14201;43.188;24.160;2023-04-21T05:04:24;99238.84;;;10.43;95.59
26531;BME280;14201;43.188;24.160;2023-04-21T05:06:49;99242.88;;;10.59;96.49
26531;BME280;14201;43.188;24.160;2023-04-21T05:09:16;99240.09;;;10.79;94.35
26531;BME280;14201;43.188;24.160;2023-04-21T05:11:42;99241.06;;;10.82;95.12
26531;BME280;14201;43.188;24.160;2023-04-21T05:14:07;99242.41;;;10.95;96.26
26531;BME280;14201;43.188;24.160;2023-04-21T05:16:33;99245.34;;;11.06;96.71
26531;BME280;14201;43.188;24.160;2023-04-21T05:19:02;99249.41;;;10.98;92.95
26531;BME280;14201;43.188;24.160;2023-04-21T05:21:28;99250.94;;;11.17;94.50
26531;BME280;14201;43.188;24.160;2023-04-21T05:23:56;99248.78;;;11.31;92.32
26531;BME280;14201;43.188;24.160;2023-04-21T05:26:22;99260.22;;;11.36;91.18
26531;BME280;14201;43.188;24.160;2023-04-21T05:28:48;99250.41;;;11.27;89.98
26531;BME280;14201;43.188;24.160;2023-04-21T05:31:14;99257.28;;;11.25;90.52
26531;BME280;14201;43.188;24.160;2023-04-21T05:33:39;99255.81;;;11.33;89.68
26531;BME280;14201;43.188;24.160;2023-04-21T05:36:09;99262.72;;;11.58;88.14
26531;BME280;14201;43.188;24.160;2023-04-21T05:38:35;99258.66;;;11.68;90.73
26531;BME280;14201;43.188;24.160;2023-04-21T05:41:01;99257.84;;;11.69;90.98
26531;BME280;14201;43.188;24.160;2023-04-21T05:43:27;99251.78;;;11.70;89.85
26531;BME280;14201;43.188;24.160;2023-04-21T05:45:53;99245.53;;;11.65;90.48
26531;BME280;14201;43.188;24.160;2023-04-21T05:48:18;99258.97;;;11.77;90.59
26531;BME280;14201;43.188;24.160;2023-04-21T05:50:44;99263.13;;;11.72;90.58
26531;BME280;14201;43.188;24.160;2023-04-21T05:53:10;99260.53;;;11.72;90.45
26531;BME280;14201;43.188;24.160;2023-04-21T05:55:35;99261.47;;;11.74;87.79
26531;BME280;14201;43.188;24.160;2023-04-21T05:58:01;99261.69;;;11.82;89.41
26531;BME280;14201;43.188;24.160;2023-04-21T06:00:28;99261.34;;;11.97;89.00
26531;BME280;14201;43.188;24.160;2023-04-21T06:02:54;99257.16;;;12.02;87.64
26531;BME280;14201;43.188;24.160;2023-04-21T06:05:20;99261.09;;;12.18;85.97
26531;BME280;14201;43.188;24.160;2023-04-21T06:07:46;99265.84;;;12.31;86.60
26531;BME280;14201;43.188;24.160;2023-04-21T06:10:12;99259.28;;;12.46;85.21
26531;BME280;14201;43.188;24.160;2023-04-21T06:12:38;99261.19;;;12.51;84.07
26531;BME280;14201;43.188;24.160;2023-04-21T06:15:05;99253.81;;;12.38;83.01
26531;BME280;14201;43.188;24.160;2023-04-21T06:17:30;99260.53;;;12.58;82.69
26531;BME280;14201;43.188;24.160;2023-04-21T06:19:56;99258.53;;;12.82;83.79
26531;BME280;14201;43.188;24.160;2023-04-21T06:22:22;99261.66;;;13.02;81.90
26531;BME280;14201;43.188;24.160;2023-04-21T06:24:48;99265.38;;;13.10;82.98
26531;BME280;14201;43.188;24.160;2023-04-21T06:27:14;99258.19;;;13.34;82.31
26531;BME280;14201;43.188;24.160;2023-04-21T06:29:40;99269.59;;;13.74;77.78
26531;BME280;14201;43.188;24.160;2023-04-21T06:32:10;99258.56;;;13.86;77.20
26531;BME280;14201;43.188;24.160;2023-04-21T06:34:36;99255.84;;;13.83;78.83
26531;BME280;14201;43.188;24.160;2023-04-21T06:37:02;99255.28;;;13.96;77.96
26531;BME280;14201;43.188;24.160;2023-04-21T06:39:27;99249.50;;;14.11;76.92
26531;BME280;14201;43.188;24.160;2023-04-21T06:41:53;99248.81;;;14.20;76.63
26531;BME280;14201;43.188;24.160;2023-04-21T06:44:19;99253.94;;;14.15;75.81
26531;BME280;14201;43.188;24.160;2023-04-21T06:46:45;99248.81;;;14.20;74.83
26531;BME280;14201;43.188;24.160;2023-04-21T06:49:11;99258.19;;;14.10;75.53
26531;BME280;14201;43.188;24.160;2023-04-21T06:51:37;99254.75;;;14.11;74.71
26531;BME280;14201;43.188;24.160;2023-04-21T06:54:03;99266.88;;;14.09;74.69
26531;BME280;14201;43.188;24.160;2023-04-21T06:56:29;99264.69;;;14.28;75.23
26531;BME280;14201;43.188;24.160;2023-04-21T06:58:55;99265.69;;;14.33;75.33
26531;BME280;14201;43.188;24.160;2023-04-21T07:01:21;99264.94;;;14.38;73.97
26531;BME280;14201;43.188;24.160;2023-04-21T07:03:51;99266.03;;;14.51;74.57
26531;BME280;14201;43.188;24.160;2023-04-21T07:06:17;99268.63;;;14.50;74.82
26531;BME280;14201;43.188;24.160;2023-04-21T07:08:43;99274.25;;;14.67;74.63
26531;BME280;14201;43.188;24.160;2023-04-21T07:11:08;99268.38;;;14.80;75.14
26531;BME280;14201;43.188;24.160;2023-04-21T07:13:34;99269.38;;;14.87;74.65
26531;BME280;14201;43.188;24.160;2023-04-21T07:15:59;99268.75;;;15.00;74.49
26531;BME280;14201;43.188;24.160;2023-04-21T07:18:25;99272.34;;;15.05;74.10
26531;BME280;14201;43.188;24.160;2023-04-21T07:20:51;99277.28;;;15.37;72.81
26531;BME280;14201;43.188;24.160;2023-04-21T07:23:17;99279.03;;;15.36;73.22
26531;BME280;14201;43.188;24.160;2023-04-21T07:25:43;99282.66;;;15.45;72.44
26531;BME280;14201;43.188;24.160;2023-04-21T07:28:08;99281.94;;;15.53;70.22
26531;BME280;14201;43.188;24.160;2023-04-21T07:30:35;99281.19;;;15.62;70.31
26531;BME280;14201;43.188;24.160;2023-04-21T07:33:01;99276.06;;;15.70;70.00
26531;BME280;14201;43.188;24.160;2023-04-21T07:35:27;99271.50;;;15.58;69.48
26531;BME280;14201;43.188;24.160;2023-04-21T07:37:52;99287.13;;;15.50;69.96
26531;BME280;14201;43.188;24.160;2023-04-21T07:40:18;99274.91;;;15.51;70.67
26531;BME280;14201;43.188;24.160;2023-04-21T07:42:44;99283.13;;;15.72;69.72
26531;BME280;14201;43.188;24.160;2023-04-21T07:45:10;99285.13;;;15.87;68.70
26531;BME280;14201;43.188;24.160;2023-04-21T07:47:35;99284.38;;;15.96;69.43
26531;BME280;14201;43.188;24.160;2023-04-21T07:50:01;99282.06;;;16.18;71.21
26531;BME280;14201;43.188;24.160;2023-04-21T07:52:27;99282.25;;;16.31;70.43
26531;BME280;14201;43.188;24.160;2023-04-21T07:54:53;99288.88;;;16.72;70.45
26531;BME280;14201;43.188;24.160;2023-04-21T07:57:18;99287.78;;;17.29;68.47
26531;BME280;14201;43.188;24.160;2023-04-21T07:59:44;99276.84;;;17.86;67.21
26531;BME280;14201;43.188;24.160;2023-04-21T08:02:09;99281.16;;;17.79;59.41
26531;BME280;14201;43.188;24.160;2023-04-21T08:04:35;99282.19;;;17.98;58.11
26531;BME280;14201;43.188;24.160;2023-04-21T08:07:00;99278.88;;;18.28;62.73
26531;BME280;14201;43.188;24.160;2023-04-21T08:09:26;99279.03;;;18.68;61.94
26531;BME280;14201;43.188;24.160;2023-04-21T08:11:52;99283.59;;;19.14;60.88
26531;BME280;14201;43.188;24.160;2023-04-21T08:14:18;99281.84;;;19.44;61.52
26531;BME280;14201;43.188;24.160;2023-04-21T08:16:43;99276.56;;;19.50;58.15
26531;BME280;14201;43.188;24.160;2023-04-21T08:19:09;99276.59;;;19.41;57.39
26531;BME280;14201;43.188;24.160;2023-04-21T08:21:34;99276.56;;;19.24;57.10
26531;BME280;14201;43.188;24.160;2023-04-21T08:24:00;99277.44;;;19.32;56.23
26531;BME280;14201;43.188;24.160;2023-04-21T08:26:25;99274.81;;;19.34;57.36
26531;BME280;14201;43.188;24.160;2023-04-21T08:28:51;99280.97;;;19.31;57.48
26531;BME280;14201;43.188;24.160;2023-04-21T08:31:19;99280.09;;;19.35;56.92
26531;BME280;14201;43.188;24.160;2023-04-21T08:33:45;99278.31;;;19.26;55.36
26531;BME280;14201;43.188;24.160;2023-04-21T08:36:10;99280.09;;;19.32;56.75
26531;BME280;14201;43.188;24.160;2023-04-21T08:38:36;99284.50;;;19.38;57.67
26531;BME280;14201;43.188;24.160;2023-04-21T08:41:02;99279.19;;;19.30;56.65
26531;BME280;14201;43.188;24.160;2023-04-21T08:43:27;99284.50;;;19.47;57.43
26531;BME280;14201;43.188;24.160;2023-04-21T08:45:53;99274.81;;;19.92;57.20
26531;BME280;14201;43.188;24.160;2023-04-21T08:48:18;99273.00;;;20.20;56.61
26531;BME280;14201;43.188;24.160;2023-04-21T08:50:47;99280.06;;;20.14;55.71
26531;BME280;14201;43.188;24.160;2023-04-21T08:53:13;99277.47;;;19.97;53.90
26531;BME280;14201;43.188;24.160;2023-04-21T08:55:39;99280.09;;;20.11;51.61
26531;BME280;14201;43.188;24.160;2023-04-21T08:58:04;99278.34;;;20.06;54.46
26531;BME280;14201;43.188;24.160;2023-04-21T09:00:31;99272.09;;;20.27;57.04
26531;BME280;14201;43.188;24.160;2023-04-21T09:02:59;99272.00;;;20.60;54.95
26531;BME280;14201;43.188;24.160;2023-04-21T09:05:28;99271.00;;;20.90;50.44
26531;BME280;14201;43.188;24.160;2023-04-21T09:08:11;99265.50;;;21.16;52.71
26531;BME280;14201;43.188;24.160;2023-04-21T09:13:08;99267.47;;;20.83;49.42
26531;BME280;14201;43.188;24.160;2023-04-21T09:15:40;99269.34;;;20.54;49.53
26531;BME280;14201;43.188;24.160;2023-04-21T09:18:12;99266.00;;;19.87;50.56
26531;BME280;14201;43.188;24.160;2023-04-21T09:20:38;99261.56;;;20.04;52.41
26531;BME280;14201;43.188;24.160;2023-04-21T09:23:04;99258.91;;;20.18;52.44
26531;BME280;14201;43.188;24.160;2023-04-21T09:25:30;99257.03;;;20.45;48.92
26531;BME280;14201;43.188;24.160;2023-04-21T09:27:56;99250.91;;;20.38;51.88
26531;BME280;14201;43.188;24.160;2023-04-21T09:30:21;99250.84;;;20.61;53.20
26531;BME280;14201;43.188;24.160;2023-04-21T09:32:47;99259.50;;;20.91;54.11
26531;BME280;14201;43.188;24.160;2023-04-21T09:35:13;99260.16;;;21.27;50.69
26531;BME280;14201;43.188;24.160;2023-04-21T09:37:39;99253.81;;;21.51;48.93
26531;BME280;14201;43.188;24.160;2023-04-21T09:40:07;99254.66;;;21.58;50.41
26531;BME280;14201;43.188;24.160;2023-04-21T09:42:33;99251.72;;;21.86;52.44
26531;BME280;14201;43.188;24.160;2023-04-21T09:44:59;99245.94;;;22.33;50.02
26531;BME280;14201;43.188;24.160;2023-04-21T09:47:27;99245.69;;;21.70;47.84
26531;BME280;14201;43.188;24.160;2023-04-21T09:49:53;99248.06;;;20.86;48.97
26531;BME280;14201;43.188;24.160;2023-04-21T09:52:19;99239.06;;;21.10;51.30
26531;BME280;14201;43.188;24.160;2023-04-21T09:54:48;99238.84;;;21.41;53.20
26531;BME280;14201;43.188;24.160;2023-04-21T09:57:15;99242.13;;;21.75;51.72
26531;BME280;14201;43.188;24.160;2023-04-21T09:59:44;99233.72;;;22.14;52.32
26531;BME280;14201;43.188;24.160;2023-04-21T10:02:11;99235.06;;;22.55;51.13
26531;BME280;14201;43.188;24.160;2023-04-21T10:04:37;99231.25;;;22.74;49.89
26531;BME280;14201;43.188;24.160;2023-04-21T10:07:05;99224.06;;;22.81;49.34
26531;BME280;14201;43.188;24.160;2023-04-21T10:10:03;99230.22;;;22.86;47.92
26531;BME280;14201;43.188;24.160;2023-04-21T10:12:23;99226.31;;;23.10;48.04
26531;BME280;14201;43.188;24.160;2023-04-21T10:14:49;99220.78;;;23.26;49.15
26531;BME280;14201;43.188;24.160;2023-04-21T10:17:16;99220.25;;;23.58;48.94
26531;BME280;14201;43.188;24.160;2023-04-21T10:19:48;99220.41;;;24.00;46.29
26531;BME280;14201;43.188;24.160;2023-04-21T10:22:14;99214.38;;;24.34;45.24
26531;BME280;14201;43.188;24.160;2023-04-21T10:24:50;99210.75;;;24.38;40.66
26531;BME280;14201;43.188;24.160;2023-04-21T10:27:29;99212.75;;;24.27;42.55
26531;BME280;14201;43.188;24.160;2023-04-21T10:29:55;99212.66;;;24.31;46.17
26531;BME280;14201;43.188;24.160;2023-04-21T10:32:40;99209.78;;;24.41;40.64
26531;BME280;14201;43.188;24.160;2023-04-21T10:35:13;99202.19;;;24.24;43.68
26531;BME280;14201;43.188;24.160;2023-04-21T10:37:41;99205.28;;;24.02;44.06
26531;BME280;14201;43.188;24.160;2023-04-21T10:40:31;99200.69;;;24.10;43.02
26531;BME280;14201;43.188;24.160;2023-04-21T10:42:52;99201.09;;;23.89;43.05
26531;BME280;14201;43.188;24.160;2023-04-21T10:45:18;99193.09;;;23.39;41.52
26531;BME280;14201;43.188;24.160;2023-04-21T10:47:44;99186.41;;;23.65;43.39
26531;BME280;14201;43.188;24.160;2023-04-21T10:50:19;99194.00;;;23.38;41.39
26531;BME280;14201;43.188;24.160;2023-04-21T10:52:48;99192.88;;;22.95;45.13
26531;BME280;14201;43.188;24.160;2023-04-21T10:55:15;99185.38;;;23.24;46.34
26531;BME280;14201;43.188;24.160;2023-04-21T10:57:41;99180.34;;;23.58;44.92
26531;BME280;14201;43.188;24.160;2023-04-21T11:00:08;99183.53;;;23.78;44.61
26531;BME280;14201;43.188;24.160;2023-04-21T11:02:34;99182.22;;;24.01;45.08
26531;BME280;14201;43.188;24.160;2023-04-21T11:05:00;99183.34;;;24.33;45.50
26531;BME280;14201;43.188;24.160;2023-04-21T11:07:25;99181.03;;;24.58;40.48
26531;BME280;14201;43.188;24.160;2023-04-21T11:10:01;99176.63;;;24.59;40.45
26531;BME280;14201;43.188;24.160;2023-04-21T11:12:27;99188.09;;;24.62;39.78
26531;BME280;14201;43.188;24.160;2023-04-21T11:14:54;99184.47;;;24.65;41.27
26531;BME280;14201;43.188;24.160;2023-04-21T11:17:19;99186.25;;;24.64;39.97
26531;BME280;14201;43.188;24.160;2023-04-21T11:19:51;99180.06;;;24.20;40.58
26531;BME280;14201;43.188;24.160;2023-04-21T11:22:17;99180.31;;;24.51;39.96
26531;BME280;14201;43.188;24.160;2023-04-21T11:24:43;99174.47;;;24.74;40.15
26531;BME280;14201;43.188;24.160;2023-04-21T11:27:09;99173.94;;;24.98;39.97
26531;BME280;14201;43.188;24.160;2023-04-21T11:29:37;99180.63;;;24.78;39.09
26531;BME280;14201;43.188;24.160;2023-04-21T11:32:04;99174.00;;;24.94;38.24
26531;BME280;14201;43.188;24.160;2023-04-21T11:34:30;99172.16;;;24.59;38.74
26531;BME280;14201;43.188;24.160;2023-04-21T11:36:55;99166.81;;;24.61;38.30
26531;BME280;14201;43.188;24.160;2023-04-21T11:39:21;99175.25;;;24.39;38.54
26531;BME280;14201;43.188;24.160;2023-04-21T11:41:47;99174.97;;;24.08;39.50
26531;BME280;14201;43.188;24.160;2023-04-21T11:44:13;99165.94;;;23.71;40.21
26531;BME280;14201;43.188;24.160;2023-04-21T11:46:45;99164.53;;;23.98;41.92
26531;BME280;14201;43.188;24.160;2023-04-21T11:49:11;99155.97;;;24.28;40.27
26531;BME280;14201;43.188;24.160;2023-04-21T11:51:37;99158.31;;;24.42;39.63
26531;BME280;14201;43.188;24.160;2023-04-21T11:54:03;99168.31;;;24.72;37.84
26531;BME280;14201;43.188;24.160;2023-04-21T11:56:29;99162.53;;;24.50;38.56
26531;BME280;14201;43.188;24.160;2023-04-21T11:58:54;99155.41;;;24.54;41.04
26531;BME280;14201;43.188;24.160;2023-04-21T12:01:20;99157.69;;;24.29;40.39
26531;BME280;14201;43.188;24.160;2023-04-21T12:03:50;99165.38;;;24.43;40.64
26531;BME280;14201;43.188;24.160;2023-04-21T12:06:21;99152.84;;;24.48;39.24
26531;BME280;14201;43.188;24.160;2023-04-21T12:08:47;99156.50;;;24.44;38.65
26531;BME280;14201;43.188;24.160;2023-04-21T12:11:15;99161.50;;;24.59;39.68
26531;BME280;14201;43.188;24.160;2023-04-21T12:13:40;99150.53;;;24.73;40.25
26531;BME280;14201;43.188;24.160;2023-04-21T12:16:06;99154.63;;;24.88;39.65
26531;BME280;14201;43.188;24.160;2023-04-21T12:18:31;99150.63;;;24.70;39.54
26531;BME280;14201;43.188;24.160;2023-04-21T12:20:59;99148.66;;;24.78;39.06
26531;BME280;14201;43.188;24.160;2023-04-21T12:23:25;99156.19;;;24.59;40.64
26531;BME280;14201;43.188;24.160;2023-04-21T12:25:50;99155.97;;;24.68;40.89
26531;BME280;14201;43.188;24.160;2023-04-21T12:28:16;99153.78;;;24.86;38.36
26531;BME280;14201;43.188;24.160;2023-04-21T12:30:42;99155.31;;;24.59;39.83
26531;BME280;14201;43.188;24.160;2023-04-21T12:33:07;99154.78;;;24.41;38.02
26531;BME280;14201;43.188;24.160;2023-04-21T12:35:33;99150.97;;;24.54;38.77
26531;BME280;14201;43.188;24.160;2023-04-21T12:37:59;99145.97;;;24.37;38.97
26531;BME280;14201;43.188;24.160;2023-04-21T12:40:25;99148.59;;;23.97;38.82
26531;BME280;14201;43.188;24.160;2023-04-21T12:42:51;99142.84;;;23.73;39.63
26531;BME280;14201;43.188;24.160;2023-04-21T12:45:16;99148.28;;;23.67;40.43
26531;BME280;14201;43.188;24.160;2023-04-21T12:47:42;99141.25;;;23.63;40.54
26531;BME280;14201;43.188;24.160;2023-04-21T12:50:07;99139.75;;;23.96;40.49
26531;BME280;14201;43.188;24.160;2023-04-21T12:52:35;99128.72;;;24.15;38.30